Caro, Michigan
Current Conditions -  °F | °C
As of 5:55 PM on Tuesday 21 Oct 2014 (Local Time) from KCFS Reporting Station
Overcast Overcast  
Wind Chill: 38°   Ceiling: 2600
Heat Index: 44°   Visibility: 10mi
Dew Point: 36°   Wind: 12mph
Humidity: 74%   Direction: 10°N
Pressure: 30.16"   Gusts: 20mph
Location:  43.49°N, 83.4°W
Report Text: KCFS 212155Z AUTO 01010G17KT 10SM OVC026 07/02 A3016 RMK AO2 T00650022
Loading
Personal Weather Stations






























Interactive Weather Map
Tropical Storm Tracking
New forecast layout! Learn more

10-Day Weather Forecast

Advertisements
Track Severe Weather on mobile